Etusivu
METAR-TAF:

METAR-TAF

Lentoasemat :

Centralia Municipal Airport

Centralia, Illinois, Yhdysvallat

Leveyspiiri: 38-30-53N, Pituuspiiri: 089-05-32W, korkeus merenpinnasta: 163 m

Tämänhetkinen sää

Tämä raportti tehtiin 20 minuuttia sitten, kello 15.35 UTC
Tuuli 7 kn etelästä/lounaasta
Lämpötila 4°C
Kosteus 52%
Ilmanpaine 1030 hPa
Näkyvyys: 16.1 km
selkeää

METAR: KENL 221535Z AUTO 21007KT 10SM CLR 04/M05 A3041 RMK AO2 T00391049

Aika: 09:55 (15:55 UTC)


TAF: puuttuu

Säähavainnot ja -ennusteet yli 4000 lentoasemalta (METAR- ja TAF-raportit).

Käytössä olevat sääasemat on merkitty karttaan keltaisilla ja punaisilla pisteillä.

Aseta hiiri pisteen päälle nähdäksesi sääaseman nimen.

Klikkaa sitten nähdäksesi säähavainnot ja -ennusteet.

Kartan vaihtaminen: klikkaa mustalla rastilla varustettuja vihreitä pisteitä, niin voit zoomata sisään; viivalla varustettua vihreää pistettä, niin voit zoomata ulos tai vihreitä nuolia, niin pääset viereisille kartoille.


METAR-TAF: